Time;durP1;ratioP1;P1;durP2;ratioP2;P2;SDS_P1;SDS_P2;PMS_P1;PMS_P2;Temp;Humidity;BMP_temperature;BMP_pressure;BME280_temperature;BME280_humidity;BME280_pressure;Samples;Min_cycle;Max_cycle;Signal;HPM_P1;HPM_P2
2023/03/23 00:01:31;;;;;;;7.10;5.20;;;;;;;11.44;100.00;100366.72;5043508;28;20252;-69
2023/03/23 00:03:58;;;;;;;8.07;5.60;;;;;;;11.37;100.00;100367.50;5046102;28;20197;-73
2023/03/23 00:06:26;;;;;;;7.10;5.83;;;;;;;11.34;100.00;100373.47;5045438;28;20235;-71
2023/03/23 00:08:59;;;;;;;8.03;6.57;;;;;;;11.26;100.00;100370.00;5046227;28;20189;-74
2023/03/23 00:11:28;;;;;;;8.07;7.10;;;;;;;11.21;100.00;100373.38;5039975;28;20185;-71
2023/03/23 00:13:57;;;;;;;10.77;7.33;;;;;;;11.18;100.00;100370.75;5045622;28;20202;-75
2023/03/23 00:16:31;;;;;;;11.43;7.53;;;;;;;11.15;100.00;100371.59;5029156;28;20197;-72
2023/03/23 00:19:03;;;;;;;10.77;7.50;;;;;;;11.10;100.00;100370.69;5045242;28;20733;-70
2023/03/23 00:21:35;;;;;;;11.43;7.93;;;;;;;11.05;100.00;100363.78;5025888;28;20206;-71
2023/03/23 00:24:06;;;;;;;14.77;8.50;;;;;;;11.00;100.00;100366.34;5045102;28;20198;-70
2023/03/23 00:26:33;;;;;;;12.20;8.07;;;;;;;10.95;100.00;100362.00;5024056;28;20673;-70
2023/03/23 00:29:07;;;;;;;13.00;8.07;;;;;;;10.92;100.00;100360.25;5026455;28;20193;-71
2023/03/23 00:31:34;;;;;;;14.17;9.23;;;;;;;10.86;100.00;100372.16;5022342;28;20266;-71
2023/03/23 00:34:03;;;;;;;13.77;9.30;;;;;;;10.83;100.00;100359.34;5043727;28;20192;-69
2023/03/23 00:36:34;;;;;;;12.63;9.33;;;;;;;10.81;100.00;100364.44;5025605;28;20193;-70
2023/03/23 00:39:03;;;;;;;13.53;9.13;;;;;;;10.79;100.00;100360.97;5025564;28;20182;-71
2023/03/23 00:41:29;;;;;;;12.53;9.30;;;;;;;10.78;100.00;100355.88;5024794;28;20214;-72
2023/03/23 00:44:01;;;;;;;14.10;9.83;;;;;;;10.74;100.00;100364.34;5041889;28;20190;-70
2023/03/23 00:46:27;;;;;;;12.20;9.97;;;;;;;10.70;100.00;100355.75;5028118;28;20259;-70
2023/03/23 00:48:54;;;;;;;16.23;11.10;;;;;;;10.68;100.00;100365.13;5023981;28;20218;-69
2023/03/23 00:51:20;;;;;;;16.80;11.27;;;;;;;10.67;100.00;100355.75;5040180;28;20659;-70
2023/03/23 00:53:46;;;;;;;16.53;10.53;;;;;;;10.66;100.00;100359.16;5040070;28;20263;-70
2023/03/23 00:56:12;;;;;;;14.37;10.53;;;;;;;10.65;100.00;100361.69;5043193;28;20197;-72
2023/03/23 00:58:38;;;;;;;15.57;11.17;;;;;;;10.64;100.00;100345.44;5023819;28;20267;-70
2023/03/23 01:01:05;;;;;;;19.27;11.23;;;;;;;10.62;100.00;100346.28;5040097;28;20213;-70
2023/03/23 01:03:30;;;;;;;14.50;11.50;;;;;;;10.60;100.00;100346.25;5038222;28;20221;-70
2023/03/23 01:06:03;;;;;;;17.17;11.97;;;;;;;10.58;100.00;100344.53;5027569;28;20735;-71
2023/03/23 01:08:31;;;;;;;13.80;10.53;;;;;;;10.56;100.00;100347.06;5040325;28;20292;-70
2023/03/23 01:11:06;;;;;;;15.13;10.80;;;;;;;10.55;100.00;100304.41;5027447;28;20236;-70
2023/03/23 01:13:31;;;;;;;16.93;10.43;;;;;;;10.55;100.00;100296.72;5040169;28;20220;-70
2023/03/23 01:15:57;;;;;;;17.93;12.23;;;;;;;10.54;100.00;100294.13;5028142;28;20725;-72
2023/03/23 01:18:22;;;;;;;15.47;11.67;;;;;;;10.53;100.00;100318.88;5039756;28;20189;-72
2023/03/23 01:20:48;;;;;;;14.10;11.07;;;;;;;10.51;100.00;100304.34;5027732;28;20667;-71
2023/03/23 01:23:13;;;;;;;14.10;10.87;;;;;;;10.48;100.00;100297.50;5022631;28;20232;-72
2023/03/23 01:25:39;;;;;;;15.73;10.60;;;;;;;10.48;100.00;100287.28;5042279;28;20202;-71
2023/03/23 01:28:05;;;;;;;14.97;10.73;;;;;;;10.46;100.00;100280.41;5038420;28;20208;-73
2023/03/23 01:30:30;;;;;;;14.37;11.67;;;;;;;10.43;100.00;100268.44;5029177;28;20248;-72
2023/03/23 01:32:56;;;;;;;16.67;11.50;;;;;;;10.44;100.00;100256.50;5029131;28;20217;-72
2023/03/23 01:35:22;;;;;;;15.47;10.37;;;;;;;10.41;100.00;100257.31;5008831;28;20185;-71
2023/03/23 01:37:48;;;;;;;15.00;10.63;;;;;;;10.43;100.00;100258.22;5023949;28;20186;-71
2023/03/23 01:40:15;;;;;;;17.43;10.97;;;;;;;10.43;100.00;100257.34;5046253;28;20213;-71
2023/03/23 01:42:41;;;;;;;18.13;11.03;;;;;;;10.43;100.00;100258.22;5027420;28;20207;-72
2023/03/23 01:45:27;;;;;;;15.73;11.43;;;;;;;10.44;100.00;100254.81;5022980;28;20193;-72
2023/03/23 01:47:59;;;;;;;13.97;10.03;;;;;;;10.44;100.00;100254.81;5026360;28;20608;-71
2023/03/23 01:50:28;;;;;;;13.97;10.50;;;;;;;10.43;100.00;100240.28;5031862;28;20658;-72
2023/03/23 01:52:57;;;;;;;14.03;10.33;;;;;;;10.43;100.00;100237.72;5011900;28;20651;-73
2023/03/23 01:55:26;;;;;;;13.63;10.07;;;;;;;10.42;100.00;100248.78;5043807;28;20235;-71
2023/03/23 01:57:53;;;;;;;15.30;10.50;;;;;;;10.41;100.00;100265.00;5027710;28;20730;-74
2023/03/23 02:00:19;;;;;;;13.83;10.57;;;;;;;10.41;100.00;100265.00;5023176;28;20206;-72
2023/03/23 02:02:52;;;;;;;18.30;11.13;;;;;;;10.39;100.00;100253.03;5021968;28;20210;-73
2023/03/23 02:05:28;;;;;;;13.40;11.03;;;;;;;10.40;100.00;100240.25;5047180;28;20189;-70
2023/03/23 02:07:59;;;;;;;12.93;9.80;;;;;;;10.43;100.00;100242.84;5027345;28;20712;-73
2023/03/23 02:10:25;;;;;;;15.43;10.80;;;;;;;10.40;100.00;100235.13;5024319;28;20191;-72
2023/03/23 02:12:50;;;;;;;21.53;12.60;;;;;;;10.42;100.00;100230.03;5026658;28;20222;-71
2023/03/23 02:15:16;;;;;;;19.67;11.20;;;;;;;10.41;100.00;100229.16;5041213;28;20190;-72
2023/03/23 02:17:56;;;;;;;15.43;11.10;;;;;;;10.42;100.00;100233.44;5027330;28;20178;-69
2023/03/23 02:20:54;;;;;;;15.80;11.70;;;;;;;10.44;100.00;100226.66;5025806;28;20206;-72
2023/03/23 02:23:24;;;;;;;18.73;11.13;;;;;;;10.44;100.00;100218.97;5001458;28;20322;-71
2023/03/23 02:26:02;;;;;;;13.00;10.27;;;;;;;10.45;100.00;100220.69;5046419;28;20304;-72
2023/03/23 02:28:29;;;;;;;15.10;11.33;;;;;;;10.45;100.00;100230.03;5015059;28;20197;-72
2023/03/23 02:31:38;;;;;;;14.73;11.60;;;;;;;10.47;100.00;100220.69;5027989;28;20315;-71
2023/03/23 02:34:17;;;;;;;15.07;10.60;;;;;;;10.47;100.00;100225.81;5022040;28;20245;-72
2023/03/23 02:36:54;;;;;;;17.60;12.03;;;;;;;10.47;100.00;100229.22;5031678;28;20189;-72
2023/03/23 02:39:23;;;;;;;16.03;11.17;;;;;;;10.46;100.00;100219.81;5028838;28;20189;-72
2023/03/23 02:41:54;;;;;;;13.70;11.80;;;;;;;10.47;100.00;100226.66;5025920;28;20220;-73
2023/03/23 02:44:22;;;;;;;16.83;11.23;;;;;;;10.47;100.00;100225.81;5030297;28;20299;-69
2023/03/23 02:46:49;;;;;;;15.20;11.07;;;;;;;10.47;100.00;100216.41;5029227;28;20614;-74
2023/03/23 02:49:17;;;;;;;13.57;11.07;;;;;;;10.46;100.00;100217.28;5026830;28;20194;-71
2023/03/23 02:51:46;;;;;;;16.63;11.93;;;;;;;10.46;100.00;100198.50;5024904;28;20220;-72
2023/03/23 02:54:13;;;;;;;18.70;12.53;;;;;;;10.44;100.00;100198.50;5027218;28;20842;-72
2023/03/23 02:56:40;;;;;;;16.23;11.77;;;;;;;10.45;100.00;100207.00;5022073;28;20197;-71
2023/03/23 02:59:12;;;;;;;18.60;11.67;;;;;;;10.44;100.00;100197.63;5027411;28;20198;-71
2023/03/23 03:01:38;;;;;;;16.40;12.03;;;;;;;10.44;100.00;100206.16;5027375;28;20222;-72
2023/03/23 03:04:07;;;;;;;15.70;11.73;;;;;;;10.47;100.00;100195.94;5011200;28;20197;-71
2023/03/23 03:06:50;;;;;;;16.43;11.17;;;;;;;10.48;100.00;100191.69;5041312;28;20185;-71
2023/03/23 03:09:46;;;;;;;13.73;11.50;;;;;;;10.48;100.00;100176.34;5044255;28;20186;-72
2023/03/23 03:12:46;;;;;;;17.60;12.93;;;;;;;10.49;100.00;100175.47;5038716;28;20205;-71
2023/03/23 03:15:29;;;;;;;15.00;11.53;;;;;;;10.51;100.00;100174.66;5022749;28;20197;-72
2023/03/23 03:18:22;;;;;;;14.20;11.47;;;;;;;10.50;100.00;100177.22;5026814;28;20288;-72
2023/03/23 03:21:00;;;;;;;13.87;11.13;;;;;;;10.52;100.00;100180.66;5025458;28;20274;-72
2023/03/23 03:23:28;;;;;;;13.17;11.77;;;;;;;10.52;100.00;100181.50;5043954;28;20718;-73
2023/03/23 03:25:58;;;;;;;15.97;12.63;;;;;;;10.53;100.00;100167.88;5023801;28;20280;-72
2023/03/23 03:28:35;;;;;;;15.47;11.43;;;;;;;10.57;100.00;100161.06;5037102;28;20193;-70
2023/03/23 03:31:04;;;;;;;13.80;11.33;;;;;;;10.56;100.00;100154.22;5024790;28;20190;-70
2023/03/23 03:33:31;;;;;;;14.70;11.73;;;;;;;10.56;100.00;100151.66;5027302;28;21012;-70
2023/03/23 03:36:01;;;;;;;16.53;12.53;;;;;;;10.57;100.00;100130.34;5037385;28;20194;-73
2023/03/23 03:38:27;;;;;;;14.37;11.97;;;;;;;10.57;100.00;100136.34;5039164;28;20218;-70
2023/03/23 03:40:55;;;;;;;15.90;12.47;;;;;;;10.58;100.00;100150.84;5025247;28;20282;-74
2023/03/23 03:43:21;;;;;;;14.57;12.47;;;;;;;10.60;100.00;100155.97;5043099;28;20296;-73
2023/03/23 03:45:47;;;;;;;18.40;13.47;;;;;;;10.60;100.00;100136.34;5025207;28;20359;-72
2023/03/23 03:48:13;;;;;;;14.77;12.80;;;;;;;10.62;100.00;100129.53;5028431;28;20213;-73
2023/03/23 03:50:38;;;;;;;15.87;13.03;;;;;;;10.63;100.00;100136.38;5021264;28;20183;-69
2023/03/23 03:53:05;;;;;;;16.43;13.23;;;;;;;10.65;100.00;100128.69;5029268;28;20260;-70
2023/03/23 03:55:35;;;;;;;17.40;13.20;;;;;;;10.65;100.00;100131.25;5024290;28;20193;-73
2023/03/23 03:58:04;;;;;;;13.10;11.80;;;;;;;10.65;100.00;100119.31;5027461;28;20219;-72
2023/03/23 04:00:49;;;;;;;14.83;12.57;;;;;;;10.64;100.00;100125.28;5037384;28;20225;-72
2023/03/23 04:03:19;;;;;;;15.13;12.87;;;;;;;10.65;100.00;100126.97;5022912;28;20584;-71
2023/03/23 04:06:03;;;;;;;13.83;12.30;;;;;;;10.65;100.00;100106.50;5027126;28;20189;-71
2023/03/23 04:08:29;;;;;;;16.50;13.43;;;;;;;10.66;100.00;100094.56;5046179;28;20188;-71
2023/03/23 04:10:56;;;;;;;15.73;12.73;;;;;;;10.67;100.00;100106.50;5025618;28;20189;-71
2023/03/23 04:13:22;;;;;;;16.03;13.37;;;;;;;10.66;100.00;100104.81;5014466;28;20215;-73
2023/03/23 04:16:16;;;;;;;16.83;12.70;;;;;;;10.67;100.00;100103.94;5020719;28;20186;-74
2023/03/23 04:18:43;;;;;;;16.03;13.50;;;;;;;10.69;100.00;100113.34;5012940;28;20663;-72
2023/03/23 04:21:09;;;;;;;17.30;13.60;;;;;;;10.70;100.00;100099.69;5025758;28;20255;-72
2023/03/23 04:23:35;;;;;;;15.33;13.63;;;;;;;10.71;100.00;100104.00;5020846;28;20271;-70
2023/03/23 04:26:03;;;;;;;16.73;14.47;;;;;;;10.74;100.00;100113.41;5025734;28;20733;-72
2023/03/23 04:28:40;;;;;;;16.23;13.43;;;;;;;10.78;100.00;100115.16;5029789;28;20672;-73
2023/03/23 04:31:29;;;;;;;18.37;14.07;;;;;;;10.80;100.00;100116.00;4995645;28;20197;-71
2023/03/23 04:34:05;;;;;;;17.23;14.00;;;;;;;10.82;100.00;100112.59;5027012;28;20197;-73
2023/03/23 04:36:37;;;;;;;15.90;13.67;;;;;;;10.83;100.00;100122.00;5027294;28;20200;-71
2023/03/23 04:39:10;;;;;;;16.60;14.30;;;;;;;10.85;100.00;100127.13;5026370;28;20186;-72
2023/03/23 04:41:37;;;;;;;14.67;13.10;;;;;;;10.86;100.00;100123.72;5019156;28;20212;-73
2023/03/23 04:44:17;;;;;;;16.77;14.00;;;;;;;10.87;100.00;100117.78;5027110;28;20212;-73
2023/03/23 04:46:49;;;;;;;14.80;13.30;;;;;;;10.90;100.00;100125.44;5027318;28;20190;-72
2023/03/23 04:49:20;;;;;;;14.63;13.13;;;;;;;10.91;100.00;100129.72;5042634;28;20198;-74
2023/03/23 04:51:48;;;;;;;17.43;13.30;;;;;;;10.92;100.00;100134.03;5007994;28;20268;-74
2023/03/23 04:54:34;;;;;;;14.80;13.13;;;;;;;10.94;100.00;100134.88;5042921;28;20205;-75
2023/03/23 04:57:00;;;;;;;13.53;11.50;;;;;;;10.98;100.00;100134.03;5023356;28;20182;-71
2023/03/23 04:59:27;;;;;;;12.77;11.40;;;;;;;10.98;100.00;100128.94;5038639;28;20186;-72
2023/03/23 05:02:14;;;;;;;14.07;11.93;;;;;;;10.99;100.00;100128.94;5044105;28;20320;-70
2023/03/23 05:04:43;;;;;;;13.17;11.83;;;;;;;11.03;100.00;100127.25;5026976;28;20197;-72
2023/03/23 05:07:13;;;;;;;12.83;10.80;;;;;;;11.07;100.00;100124.69;5024656;28;20196;-73
2023/03/23 05:09:47;;;;;;;12.57;10.97;;;;;;;11.06;100.00;100122.16;5025554;28;20185;-72
2023/03/23 05:12:13;;;;;;;11.93;10.43;;;;;;;11.13;100.00;100106.81;5029281;28;20210;-72
2023/03/23 05:14:50;;;;;;;10.37;8.93;;;;;;;11.16;100.00;100103.41;5026652;28;20189;-71
2023/03/23 05:17:19;;;;;;;14.33;9.57;;;;;;;11.13;100.00;100113.63;5022135;28;20233;-74
2023/03/23 05:19:47;;;;;;;12.20;8.53;;;;;;;11.15;100.00;100110.22;5014070;28;20194;-73
2023/03/23 05:22:33;;;;;;;10.33;8.77;;;;;;;11.13;100.00;100101.69;5028935;28;20919;-72
2023/03/23 05:25:02;;;;;;;10.50;8.10;;;;;;;11.13;100.00;100117.06;5026515;28;20228;-70
2023/03/23 05:27:30;;;;;;;10.00;8.40;;;;;;;11.11;100.00;100107.66;5026717;28;20213;-72
2023/03/23 05:30:01;;;;;;;10.40;7.67;;;;;;;11.13;100.00;100096.56;5013616;28;20212;-73
2023/03/23 05:32:31;;;;;;;10.10;8.00;;;;;;;11.12;100.00;100099.13;5024934;28;20584;-71
2023/03/23 05:35:04;;;;;;;11.53;8.10;;;;;;;11.11;100.00;100099.97;5027506;28;20182;-70
2023/03/23 05:37:33;;;;;;;11.13;7.87;;;;;;;11.12;100.00;100101.69;5028937;28;20189;-73
2023/03/23 05:40:07;;;;;;;12.70;7.27;;;;;;;11.14;100.00;100105.09;5028976;28;20663;-70
2023/03/23 05:42:40;;;;;;;10.33;7.67;;;;;;;11.12;100.00;100112.78;5025821;28;20246;-70
2023/03/23 05:45:13;;;;;;;8.83;7.73;;;;;;;11.12;100.00;100114.50;5029461;28;20185;-72
2023/03/23 05:47:40;;;;;;;11.37;7.27;;;;;;;11.13;100.00;100111.06;5031550;28;20186;-73
2023/03/23 05:50:10;;;;;;;8.90;6.70;;;;;;;11.15;100.00;100117.91;5029759;28;20798;-72
2023/03/23 05:52:37;;;;;;;7.33;6.43;;;;;;;11.15;100.00;100114.50;5032631;28;20256;-71
2023/03/23 05:55:07;;;;;;;7.43;6.30;;;;;;;11.16;100.00;100106.81;5026260;28;20190;-69
2023/03/23 05:57:34;;;;;;;9.23;6.83;;;;;;;11.15;100.00;100120.47;5042432;28;20606;-70
2023/03/23 06:00:18;;;;;;;7.67;6.03;;;;;;;11.16;100.00;100124.75;5029683;28;20182;-70
2023/03/23 06:02:45;;;;;;;7.93;5.43;;;;;;;11.18;100.00;100114.50;5027447;28;20224;-73
2023/03/23 06:05:15;;;;;;;6.13;5.10;;;;;;;11.21;100.00;100115.41;5030339;28;20194;-72
2023/03/23 06:07:44;;;;;;;7.00;4.80;;;;;;;11.22;100.00;100122.22;5028358;28;20190;-71
2023/03/23 06:10:10;;;;;;;5.73;4.43;;;;;;;11.23;100.00;100117.94;5025362;28;20192;-72
2023/03/23 06:12:42;;;;;;;9.67;5.27;;;;;;;11.23;100.00;100116.25;5025560;28;20218;-73
2023/03/23 06:15:18;;;;;;;7.57;4.43;;;;;;;11.27;100.00;100115.44;5029115;28;20190;-72
2023/03/23 06:17:59;;;;;;;7.17;4.30;;;;;;;11.29;100.00;100098.34;5042544;28;20199;-72
2023/03/23 06:20:32;;;;;;;5.00;3.93;;;;;;;11.27;100.00;100096.63;5030405;28;20217;-72
2023/03/23 06:23:01;;;;;;;6.80;4.73;;;;;;;11.27;100.00;100112.00;5024750;28;20291;-73
2023/03/23 06:25:31;;;;;;;7.33;4.43;;;;;;;11.29;100.00;100106.03;5030432;28;20190;-71
2023/03/23 06:27:57;;;;;;;6.90;4.10;;;;;;;11.32;100.00;100102.63;5028003;28;20194;-72
2023/03/23 06:30:23;;;;;;;6.77;4.40;;;;;;;11.31;100.00;100098.34;5030629;28;20185;-72
2023/03/23 06:32:50;;;;;;;4.93;4.20;;;;;;;11.32;100.00;100112.88;5028224;28;20214;-71
2023/03/23 06:35:20;;;;;;;4.07;3.73;;;;;;;11.33;100.00;100123.13;5024817;28;20190;-72
2023/03/23 06:37:53;;;;;;;5.60;4.03;;;;;;;11.35;100.00;100116.31;5040036;28;20194;-71
2023/03/23 06:40:29;;;;;;;5.87;4.07;;;;;;;11.34;100.00;100117.16;5030823;28;20204;-72
2023/03/23 06:42:59;;;;;;;4.90;3.83;;;;;;;11.30;100.00;100125.66;5026701;28;20716;-72
2023/03/23 06:45:43;;;;;;;5.80;3.70;;;;;;;11.28;100.00;100121.38;5020504;28;20193;-71
2023/03/23 06:48:27;;;;;;;6.00;4.13;;;;;;;11.26;100.00;100130.78;5043666;28;20726;-72
2023/03/23 06:50:53;;;;;;;6.80;4.03;;;;;;;11.24;100.00;100125.66;5032779;28;20182;-71
2023/03/23 06:53:20;;;;;;;5.83;3.70;;;;;;;11.25;100.00;100118.81;5021644;28;20208;-71
2023/03/23 06:55:46;;;;;;;4.50;3.50;;;;;;;11.27;100.00;100125.69;5028778;28;20194;-72
2023/03/23 06:58:12;;;;;;;5.73;3.57;;;;;;;11.29;100.00;100121.41;5029582;28;20200;-71
2023/03/23 07:00:38;;;;;;;6.57;3.70;;;;;;;11.34;100.00;100121.44;5029819;28;20312;-74
2023/03/23 07:03:04;;;;;;;4.70;3.43;;;;;;;11.41;100.00;100126.59;5029921;28;20209;-72
2023/03/23 07:05:32;;;;;;;5.93;3.30;;;;;;;11.49;100.00;100119.81;5029428;28;20198;-72
2023/03/23 07:07:58;;;;;;;5.77;3.60;;;;;;;11.59;100.00;100120.66;5012175;28;20263;-73
2023/03/23 07:10:34;;;;;;;4.63;3.53;;;;;;;11.66;100.00;100115.59;5026473;28;20221;-71
2023/03/23 07:13:00;;;;;;;6.90;3.47;;;;;;;11.69;100.00;100118.19;5027942;28;20244;-72
2023/03/23 07:15:30;;;;;;;5.47;3.43;;;;;;;11.65;100.00;100116.47;5025725;28;20723;-72
2023/03/23 07:17:56;;;;;;;4.10;3.27;;;;;;;11.65;100.00;100110.47;5030491;28;20201;-72
2023/03/23 07:20:30;;;;;;;5.93;3.30;;;;;;;11.65;100.00;100118.16;5013667;28;20218;-69
2023/03/23 07:22:56;;;;;;;4.80;3.17;;;;;;;11.69;100.00;100113.06;5030239;28;20575;-72
2023/03/23 07:25:36;;;;;;;5.67;3.70;;;;;;;11.75;100.00;100119.91;5024237;28;20199;-70
2023/03/23 07:28:02;;;;;;;5.43;3.10;;;;;;;11.75;100.00;100125.88;5029462;28;20224;-73
2023/03/23 07:30:31;;;;;;;3.90;3.43;;;;;;;11.80;100.00;100131.88;5016215;28;20226;-72
2023/03/23 07:32:57;;;;;;;5.00;3.17;;;;;;;11.90;100.00;100127.66;5026684;28;20722;-73
2023/03/23 07:35:24;;;;;;;4.60;2.87;;;;;;;12.08;100.00;100125.97;5028348;28;20188;-72
2023/03/23 07:38:03;;;;;;;4.17;3.10;;;;;;;12.10;100.00;100126.84;5030250;28;20212;-71
2023/03/23 07:40:33;;;;;;;5.47;3.13;;;;;;;12.14;100.00;100135.38;5029482;28;20221;-72
2023/03/23 07:43:03;;;;;;;8.53;3.33;;;;;;;12.19;100.00;100136.25;5013084;28;20256;-70
2023/03/23 07:45:48;;;;;;;4.53;3.27;;;;;;;12.20;100.00;100143.09;5045406;28;20212;-70
2023/03/23 07:48:15;;;;;;;5.13;3.23;;;;;;;12.14;100.00;100149.09;5027534;28;20193;-71
2023/03/23 07:50:41;;;;;;;5.33;3.37;;;;;;;12.19;100.00;100143.94;5025607;28;20198;-70
2023/03/23 07:53:10;;;;;;;4.10;3.60;;;;;;;12.18;100.00;100149.94;5028488;28;20213;-72
2023/03/23 07:55:37;;;;;;;4.50;3.53;;;;;;;12.13;100.00;100147.34;5026257;28;20232;-73
2023/03/23 07:58:21;;;;;;;5.33;3.67;;;;;;;12.11;100.00;100148.19;5025975;28;20281;-72
2023/03/23 08:00:52;;;;;;;3.67;3.37;;;;;;;12.12;100.00;100155.06;5024428;28;20679;-73
2023/03/23 08:03:19;;;;;;;3.63;3.30;;;;;;;12.19;100.00;100151.66;5026778;28;20241;-74
2023/03/23 08:05:57;;;;;;;4.57;3.40;;;;;;;12.35;100.00;100141.41;5046161;28;20200;-73
2023/03/23 08:08:41;;;;;;;4.00;3.60;;;;;;;12.45;100.00;100149.97;5041587;28;20304;-73
2023/03/23 08:11:26;;;;;;;4.03;3.30;;;;;;;12.57;100.00;100137.13;5043983;28;20312;-74
2023/03/23 08:13:52;;;;;;;5.40;4.17;;;;;;;12.75;100.00;100148.25;5039769;28;20198;-72
2023/03/23 08:16:36;;;;;;;4.37;3.40;;;;;;;12.90;100.00;100142.25;5042427;28;20211;-72
2023/03/23 08:19:15;;;;;;;4.77;3.30;;;;;;;12.92;100.00;100140.53;5031724;28;20969;-71
2023/03/23 08:21:47;;;;;;;3.73;3.43;;;;;;;12.71;100.00;100133.69;5038910;28;20222;-72
2023/03/23 08:24:16;;;;;;;4.00;3.60;;;;;;;12.79;100.00;100131.13;5042543;28;20262;-72
2023/03/23 08:26:44;;;;;;;4.80;3.83;;;;;;;12.91;100.00;100131.13;5041964;28;20206;-73
2023/03/23 08:29:28;;;;;;;4.40;3.60;;;;;;;12.93;100.00;100135.38;5044976;28;20288;-71
2023/03/23 08:32:20;;;;;;;4.10;3.70;;;;;;;12.87;100.00;100134.53;5018338;28;20221;-73
2023/03/23 08:35:05;;;;;;;3.87;3.47;;;;;;;12.86;100.00;100143.94;5045577;28;20219;-72
2023/03/23 08:37:57;;;;;;;4.87;3.37;;;;;;;12.85;100.00;100142.25;5041138;28;20347;-74
2023/03/23 08:40:41;;;;;;;3.40;3.10;;;;;;;12.75;100.00;100153.41;5044022;28;20782;-72
2023/03/23 08:43:28;;;;;;;5.13;3.27;;;;;;;12.74;100.00;100154.25;5026936;28;20205;-72
2023/03/23 08:46:10;;;;;;;4.00;3.27;;;;;;;12.71;100.00;100161.97;5041339;28;20599;-71
2023/03/23 08:49:05;;;;;;;6.00;3.80;;;;;;;12.63;100.00;100167.97;5031580;28;20197;-71
2023/03/23 08:52:02;;;;;;;4.37;3.37;;;;;;;12.54;100.00;100180.78;5030856;28;20621;-71
2023/03/23 08:54:47;;;;;;;4.97;4.10;;;;;;;12.41;100.00;100186.78;5043482;28;20430;-71
2023/03/23 08:57:48;;;;;;;6.50;3.77;;;;;;;12.22;100.00;100195.31;5028724;28;20673;-72
2023/03/23 09:00:24;;;;;;;3.67;2.97;;;;;;;12.09;100.00;100185.84;5026959;28;20303;-71
2023/03/23 09:03:10;;;;;;;1.63;1.30;;;;;;;11.99;100.00;100184.13;5029454;28;20214;-72
2023/03/23 09:06:07;;;;;;;1.30;0.90;;;;;;;11.86;100.00;100185.78;5032239;28;20221;-75
2023/03/23 09:08:37;;;;;;;1.30;1.10;;;;;;;11.96;100.00;100181.53;5032353;28;20200;-75
2023/03/23 09:11:04;;;;;;;1.97;0.90;;;;;;;12.05;100.00;100186.69;5045476;28;20624;-75
2023/03/23 09:13:30;;;;;;;2.03;0.90;;;;;;;12.10;100.00;100192.69;5046920;28;20763;-75
2023/03/23 09:15:57;;;;;;;1.67;1.20;;;;;;;12.15;100.00;100198.69;5048543;28;20371;-72
2023/03/23 09:18:24;;;;;;;2.17;1.30;;;;;;;12.09;100.00;100203.81;5047350;28;20194;-72
2023/03/23 09:20:51;;;;;;;1.37;1.13;;;;;;;12.04;100.00;100203.81;5010073;28;20710;-71
2023/03/23 09:23:17;;;;;;;2.83;2.13;;;;;;;11.98;100.00;100193.50;5046211;28;20245;-71
2023/03/23 09:25:42;;;;;;;2.07;1.90;;;;;;;12.00;100.00;100203.78;5047518;28;20286;-71
2023/03/23 09:28:08;;;;;;;3.50;1.80;;;;;;;11.95;100.00;100206.34;5041595;28;20611;-69
2023/03/23 09:30:36;;;;;;;3.17;1.70;;;;;;;12.00;100.00;100224.31;5047287;28;20192;-69
2023/03/23 09:33:03;;;;;;;4.67;2.17;;;;;;;11.91;100.00;100222.59;5045105;28;20209;-71
2023/03/23 09:35:31;;;;;;;7.10;2.00;;;;;;;12.01;100.00;100224.31;5029349;28;20196;-69
2023/03/23 09:38:00;;;;;;;4.23;1.60;;;;;;;11.95;100.00;100233.69;5014174;28;20190;-72
2023/03/23 09:40:33;;;;;;;7.13;1.53;;;;;;;11.94;100.00;100237.13;5047245;28;20217;-70
2023/03/23 09:43:12;;;;;;;6.07;2.00;;;;;;;11.91;100.00;100234.53;5028347;28;20233;-70
2023/03/23 09:45:52;;;;;;;7.40;1.77;;;;;;;11.88;100.00;100237.09;5041960;28;21087;-71
2023/03/23 09:48:43;;;;;;;5.93;1.90;;;;;;;11.90;100.00;100236.22;5048239;28;20344;-71
2023/03/23 09:51:35;;;;;;;6.57;1.70;;;;;;;12.07;100.00;100219.19;5048149;28;20200;-70
2023/03/23 09:54:25;;;;;;;6.57;1.93;;;;;;;12.19;100.00;100237.22;5049777;28;20204;-70
2023/03/23 09:56:51;;;;;;;8.37;2.20;;;;;;;12.42;100.00;100240.69;5043649;28;20205;-69
2023/03/23 09:59:24;;;;;;;4.40;1.60;;;;;;;12.55;100.00;100245.00;5044140;28;20194;-70
2023/03/23 10:01:58;;;;;;;4.90;1.80;;;;;;;12.59;100.00;100245.88;5044648;28;20209;-70
2023/03/23 10:04:32;;;;;;;10.20;2.40;;;;;;;12.60;100.00;100251.00;5049346;28;20195;-70
2023/03/23 10:07:19;;;;;;;6.70;2.57;;;;;;;12.71;100.00;100251.00;5045781;28;20189;-70
2023/03/23 10:09:48;;;;;;;8.90;2.47;;;;;;;12.96;100.00;100245.03;5046819;28;20205;-72
2023/03/23 10:12:29;;;;;;;6.43;2.03;;;;;;;14.00;100.00;100237.13;5028592;28;20227;-70
2023/03/23 10:15:34;;;;;;;10.57;2.30;;;;;;;14.34;100.00;100236.13;5046229;28;20204;-73
2023/03/23 10:18:15;;;;;;;8.57;2.40;;;;;;;14.84;100.00;100210.88;5044984;28;20193;-70
2023/03/23 10:20:44;;;;;;;5.93;2.30;;;;;;;13.83;100.00;100262.94;5027966;28;20756;-72
2023/03/23 10:23:18;;;;;;;8.43;2.60;;;;;;;13.45;100.00;100261.31;5026199;28;20214;-72
2023/03/23 10:25:56;;;;;;;8.20;2.57;;;;;;;13.40;100.00;100266.44;5029385;28;20566;-72
2023/03/23 10:28:39;;;;;;;6.13;2.27;;;;;;;13.38;100.00;100255.31;5029653;28;20209;-74
2023/03/23 10:31:11;;;;;;;5.97;2.23;;;;;;;13.42;100.00;100261.31;5023189;28;20191;-72
2023/03/23 10:33:40;;;;;;;10.50;2.70;;;;;;;13.32;100.00;100273.34;5026451;28;20214;-73
2023/03/23 10:36:30;;;;;;;8.23;2.50;;;;;;;13.26;100.00;100275.06;5025281;28;20205;-74
2023/03/23 10:39:11;;;;;;;10.63;2.67;;;;;;;13.26;100.00;100278.47;5027400;28;20294;-72
2023/03/23 10:41:38;;;;;;;12.43;3.23;;;;;;;13.21;100.00;100277.63;5022553;28;20586;-72
2023/03/23 10:44:17;;;;;;;12.93;3.03;;;;;;;13.12;100.00;100279.34;5021017;28;20192;-72
2023/03/23 10:46:50;;;;;;;10.80;2.83;;;;;;;13.23;100.00;100288.78;5023508;28;20561;-72
2023/03/23 10:49:23;;;;;;;8.30;2.57;;;;;;;13.27;100.00;100292.19;5024093;28;20611;-72
2023/03/23 10:52:28;;;;;;;12.33;2.90;;;;;;;13.36;100.00;100292.19;5025919;28;20245;-73
2023/03/23 10:54:56;;;;;;;12.07;3.00;;;;;;;13.21;100.00;100287.91;4963126;28;20196;-71
2023/03/23 10:57:26;;;;;;;9.27;2.57;;;;;;;13.30;100.00;100289.63;4965762;28;20197;-70
2023/03/23 10:59:58;;;;;;;8.83;2.80;;;;;;;13.33;100.00;100292.19;4997481;28;20656;-71
2023/03/23 11:02:24;;;;;;;10.17;2.70;;;;;;;13.21;100.00;100299.91;5020985;28;20229;-71
2023/03/23 11:04:59;;;;;;;13.07;3.33;;;;;;;13.18;100.00;100305.91;5028088;28;20194;-71
2023/03/23 11:07:29;;;;;;;12.93;3.10;;;;;;;13.19;100.00;100304.19;5020873;28;20190;-70
2023/03/23 11:09:58;;;;;;;13.13;3.10;;;;;;;13.19;100.00;100294.78;5027070;28;20233;-72
2023/03/23 11:12:24;;;;;;;13.33;3.07;;;;;;;13.17;100.00;100293.06;5022929;28;20207;-71
2023/03/23 11:14:50;;;;;;;7.43;2.37;;;;;;;13.19;100.00;100297.34;5022847;28;20225;-72
2023/03/23 11:17:26;;;;;;;10.43;2.90;;;;;;;13.21;100.00;100294.78;5022974;28;20191;-71
2023/03/23 11:19:56;;;;;;;13.33;2.93;;;;;;;13.25;100.00;100301.63;5021082;28;20671;-73
2023/03/23 11:22:28;;;;;;;11.40;3.20;;;;;;;13.15;100.00;100305.03;5024172;28;20288;-71
2023/03/23 11:24:56;;;;;;;13.23;3.20;;;;;;;13.23;100.00;100296.50;5025942;28;20194;-71
2023/03/23 11:27:24;;;;;;;8.50;2.97;;;;;;;13.07;100.00;100302.47;5024251;28;20369;-71
2023/03/23 11:29:56;;;;;;;11.40;3.13;;;;;;;13.09;100.00;100303.34;5027532;28;20548;-72
2023/03/23 11:32:31;;;;;;;11.27;3.23;;;;;;;13.15;100.00;100285.34;5024575;28;20202;-71
2023/03/23 11:35:04;;;;;;;11.87;3.60;;;;;;;13.16;100.00;100296.50;5024469;28;20237;-71